CDT,Max TemperatureF,Mean TemperatureF,Min TemperatureF,Max Dew PointF,MeanDew PointF,Min DewpointF,Max Humidity, Mean Humidity, Min Humidity, Max Sea Level PressureIn, Mean Sea Level PressureIn, Min Sea Level PressureIn, Max VisibilityMiles, Mean VisibilityMiles, Min VisibilityMiles, Max Wind SpeedMPH, Mean Wind SpeedMPH, Max Gust SpeedMPH,PrecipitationIn, CloudCover, Events, WindDirDegrees
2013-4-1,29,22,16,12,8,5,72,55,40,30.08,30.00,29.88,10,10,10,21,12,28,0.00,2,,307
2013-4-2,32,24,15,12,9,6,71,55,37,30.26,30.15,30.08,10,10,10,17,8,25,0.00,0,,305
2013-4-3,36,22,8,17,11,4,90,61,28,30.41,30.29,30.13,10,10,10,14,3,21,0.00,0,,197
2013-4-4,46,37,28,30,23,17,84,60,41,30.13,29.99,29.91,10,10,4,17,13,24,0.01,2,Rain,278
2013-4-5,37,29,21,29,18,11,95,63,34,30.22,30.15,30.06,10,10,2,12,5,,0.00,2,Snow,7
2013-4-6,40,34,27,36,30,26,100,90,72,30.10,29.76,29.47,10,6,1,22,13,29,0.25,8,Rain-Snow,140
2013-4-7,41,36,31,35,29,27,99,80,60,29.92,29.80,29.50,10,10,5,18,10,29,0.01,5,Rain-Snow,313
2013-4-8,35,34,32,35,32,29,99,95,88,30.00,29.85,29.76,10,8,2,15,7,16,0.04,7,Rain,84
2013-4-9,36,32,29,36,30,20,100,91,65,30.11,30.04,29.98,10,6,0,20,7,24,0.13,8,Fog-Rain-Snow,37
2013-4-10,38,32,26,25,22,16,96,68,49,30.17,30.06,29.98,10,9,1,22,13,26,0.11,7,Snow,51
2013-4-11,32,29,26,26,23,17,93,77,58,29.99,29.82,29.68,10,7,1,32,18,41,0.01,7,Snow,80
2013-4-12,31,28,25,28,25,23,97,90,79,29.69,29.63,29.58,10,5,1,17,10,25,0.01,8,Snow,52
2013-4-13,34,28,20,28,22,19,96,78,54,29.93,29.77,29.68,10,9,2,16,8,22,0.00,6,Snow,302
2013-4-14,32,23,14,30,23,12,96,89,66,29.98,29.87,29.63,10,7,0,28,7,36,0.09,6,Fog-Snow,102
2013-4-15,44,38,32,35,30,25,100,80,52,29.87,29.72,29.58,10,7,0,30,10,39,0.08,6,Fog-Snow,229
2013-4-16,45,38,30,28,27,25,84,71,50,30.31,30.09,29.88,10,10,10,16,9,20,0.00,6,,295
2013-4-17,37,32,28,34,27,24,98,79,66,30.35,30.21,29.95,10,10,2,18,9,23,0.00,5,,82
2013-4-18,36,34,32,36,34,32,100,98,93,29.93,29.57,29.22,10,4,1,26,11,34,0.04,8,Rain-Snow,63
2013-4-19,35,28,21,36,24,16,100,84,62,29.83,29.39,29.12,10,7,1,25,15,34,0.01,7,Snow,293
2013-4-20,35,26,17,22,15,8,92,63,34,30.34,30.14,29.84,10,10,10,15,8,20,0.00,1,Snow,309
2013-4-21,34,30,25,30,25,15,92,79,62,30.43,30.32,30.17,10,10,3,20,11,25,0.00,5,Rain-Snow,149
2013-4-22,42,38,33,40,37,29,100,97,85,30.19,30.12,30.00,10,5,0,12,7,16,0.17,8,Fog-Rain,137
2013-4-23,37,32,27,37,30,22,100,86,67,29.99,29.93,29.83,10,8,0,20,10,23,0.08,7,Fog-Rain-Snow,341
2013-4-24,46,34,22,32,25,20,96,68,47,29.97,29.93,29.87,10,10,5,21,5,28,0.00,2,Rain,266
2013-4-25,43,36,29,32,29,26,100,81,55,30.21,30.07,29.85,10,9,0,17,8,24,0.28,4,Snow,269
2013-4-26,64,46,29,44,35,26,86,66,40,30.21,30.13,30.05,10,10,10,22,8,28,0.00,4,Rain,199
2013-4-27,68,54,39,48,44,39,97,71,45,30.16,30.09,30.01,10,10,10,13,6,16,0.00,2,,201
2013-4-28,69,52,35,44,40,35,97,63,33,30.01,29.88,29.77,10,10,7,15,7,18,0.00,0,,179
2013-4-29,68,56,45,56,49,41,99,80,57,29.81,29.77,29.72,10,9,2,16,6,20,0.12,7,Rain,163
2013-4-30,81,66,51,57,52,43,97,67,41,29.93,29.69,29.60,10,9,5,23,12,31,0.00,4,Rain,189